Time;durP1;ratioP1;P1;durP2;ratioP2;P2;SDS_P1;SDS_P2;PMS_P1;PMS_P2;Temp;Humidity;BMP_temperature;BMP_pressure;BME280_temperature;BME280_humidity;BME280_pressure;Samples;Min_cycle;Max_cycle;Signal;HPM_P1;HPM_P2
2024/03/19 00:00:19;;;;;;;7.50;5.40;;;10.90;1.00;;;;;;5062512;28;20432;-42
2024/03/19 00:02:46;;;;;;;5.93;5.33;;;10.90;1.00;;;;;;5078220;28;20443;-43
2024/03/19 00:05:12;;;;;;;6.27;5.73;;;10.90;1.00;;;;;;5061924;28;20777;-42
2024/03/19 00:07:37;;;;;;;6.13;5.53;;;10.80;1.00;;;;;;5062794;28;20570;-43
2024/03/19 00:10:03;;;;;;;6.30;5.70;;;10.80;1.00;;;;;;5061614;28;20184;-44
2024/03/19 00:12:32;;;;;;;6.17;5.63;;;10.80;1.00;;;;;;5079424;28;20192;-44
2024/03/19 00:14:59;;;;;;;6.93;6.30;;;10.80;1.00;;;;;;5078367;28;20485;-43
2024/03/19 00:17:26;;;;;;;7.37;6.67;;;10.70;1.00;;;;;;5078352;28;20825;-42
2024/03/19 00:19:52;;;;;;;7.50;5.50;;;10.70;1.00;;;;;;5061328;28;20427;-42
2024/03/19 00:22:18;;;;;;;8.27;6.03;;;10.70;1.00;;;;;;5044722;28;20829;-44
2024/03/19 00:24:44;;;;;;;6.23;5.63;;;10.70;1.00;;;;;;5079085;28;20434;-43
2024/03/19 00:27:10;;;;;;;6.90;6.30;;;10.60;1.00;;;;;;5079363;28;20208;-44
2024/03/19 00:29:35;;;;;;;5.47;4.97;;;10.60;1.00;;;;;;5080060;28;20250;-43
2024/03/19 00:32:01;;;;;;;6.37;5.07;;;10.60;1.00;;;;;;5061727;28;20177;-42
2024/03/19 00:34:27;;;;;;;5.97;5.00;;;10.60;1.00;;;;;;5078778;28;20185;-42
2024/03/19 00:36:52;;;;;;;6.40;5.63;;;10.50;1.00;;;;;;5078268;28;20173;-43
2024/03/19 00:39:21;;;;;;;6.43;5.83;;;10.50;1.00;;;;;;5079251;28;20196;-42
2024/03/19 00:41:47;;;;;;;6.17;5.00;;;10.50;1.00;;;;;;5078620;28;20169;-45
2024/03/19 00:44:13;;;;;;;4.37;2.23;;;10.50;9.60;;;;;;5060402;28;20530;-44
2024/03/19 00:46:39;;;;;;;3.30;1.63;;;10.90;1.00;;;;;;5077486;28;20459;-46
2024/03/19 00:49:05;;;;;;;2.80;1.80;;;11.70;1.00;;;;;;5077551;28;20177;-45
2024/03/19 00:51:31;;;;;;;2.23;1.57;;;12.60;1.00;;;;;;5077594;28;20613;-44
2024/03/19 00:53:57;;;;;;;2.37;1.87;;;13.30;1.00;;;;;;5077673;28;20459;-47
2024/03/19 00:56:23;;;;;;;5.40;1.93;;;13.90;1.00;;;;;;5077557;28;20220;-45
2024/03/19 00:58:48;;;;;;;6.30;2.20;;;14.50;99.90;;;;;;5077631;28;20227;-45
2024/03/19 01:01:14;;;;;;;5.00;2.27;;;15.00;99.90;;;;;;5076634;28;20273;-43
2024/03/19 01:03:40;;;;;;;2.43;1.83;;;15.50;1.00;;;;;;5077079;28;20467;-42
2024/03/19 01:06:06;;;;;;;2.80;2.30;;;15.90;1.00;;;;;;5075772;28;20239;-43
2024/03/19 01:08:31;;;;;;;3.60;2.83;;;16.20;99.90;;;;;;5077115;28;20207;-45
2024/03/19 01:11:04;;;;;;;4.60;4.20;;;16.40;99.90;;;;;;5042720;28;20416;-40
2024/03/19 01:13:30;;;;;;;4.63;4.20;;;16.00;1.00;;;;;;5077979;28;20169;-43
2024/03/19 01:15:56;;;;;;;5.33;4.83;;;15.50;99.90;;;;;;5078745;28;20462;-42
2024/03/19 01:18:22;;;;;;;4.90;4.50;;;14.80;99.90;;;;;;5078057;28;20678;-43
2024/03/19 01:20:48;;;;;;;5.13;4.40;;;14.20;99.90;;;;;;5078107;28;20435;-42
2024/03/19 01:23:13;;;;;;;5.47;4.97;;;13.70;1.00;;;;;;5078415;28;20266;-42
2024/03/19 01:25:39;;;;;;;5.53;5.00;;;13.20;1.00;;;;;;5077739;28;20197;-42
2024/03/19 01:28:05;;;;;;;5.43;5.00;;;12.80;99.90;;;;;;5078286;28;20182;-42
2024/03/19 01:30:31;;;;;;;7.43;5.93;;;12.50;99.90;;;;;;5078235;28;20556;-42
2024/03/19 01:32:56;;;;;;;5.73;5.03;;;12.20;1.00;;;;;;5077759;28;20623;-41
2024/03/19 01:35:22;;;;;;;6.80;5.77;;;11.90;99.90;;;;;;5077498;28;20284;-41
2024/03/19 01:37:47;;;;;;;5.63;5.10;;;11.70;1.00;;;;;;5078168;28;20624;-42
2024/03/19 01:40:13;;;;;;;5.70;5.20;;;11.50;61.30;;;;;;5077912;28;20209;-42
2024/03/19 01:42:39;;;;;;;7.63;5.47;;;11.30;99.90;;;;;;5078037;28;20223;-41
2024/03/19 01:45:12;;;;;;;4.73;4.33;;;11.20;1.00;;;;;;5060094;28;20429;-43
2024/03/19 01:47:38;;;;;;;4.87;4.23;;;11.00;1.00;;;;;;5059749;28;20303;-42
2024/03/19 01:50:06;;;;;;;4.97;4.57;;;10.90;1.00;;;;;;5078448;28;20414;-43
2024/03/19 01:52:44;;;;;;;5.10;4.60;;;10.80;99.90;;;;;;5077707;28;20554;-43
2024/03/19 01:55:11;;;;;;;4.57;4.17;;;10.70;99.90;;;;;;5077927;28;20722;-43
2024/03/19 01:57:36;;;;;;;4.87;4.43;;;10.60;99.90;;;;;;5078020;28;20431;-41
2024/03/19 02:00:04;;;;;;;5.57;5.00;;;10.50;99.90;;;;;;5078260;28;20427;-42
2024/03/19 02:02:30;;;;;;;4.57;4.17;;;10.50;99.90;;;;;;5077832;28;20546;-41
2024/03/19 02:04:56;;;;;;;5.33;4.93;;;10.40;99.90;;;;;;5077595;28;20403;-41
2024/03/19 02:07:22;;;;;;;6.43;5.47;;;10.30;99.90;;;;;;5077246;28;20463;-43
2024/03/19 02:09:49;;;;;;;6.20;5.60;;;10.30;99.90;;;;;;5077810;28;20798;-43
2024/03/19 02:12:15;;;;;;;6.00;4.80;;;10.20;99.90;;;;;;5077825;28;20169;-43
2024/03/19 02:14:41;;;;;;;6.10;5.50;;;10.20;99.90;;;;;;5046445;28;20522;-41
2024/03/19 02:17:07;;;;;;;5.60;5.00;;;10.10;99.90;;;;;;5081649;28;20450;-42
2024/03/19 02:19:35;;;;;;;6.03;5.43;;;10.10;99.90;;;;;;5081702;28;20181;-42
2024/03/19 02:22:01;;;;;;;5.63;5.03;;;10.00;99.90;;;;;;5081788;28;20195;-41
2024/03/19 02:24:26;;;;;;;5.70;5.20;;;9.90;99.90;;;;;;5081690;28;20419;-41
2024/03/19 02:26:52;;;;;;;5.20;4.70;;;9.90;99.90;;;;;;5063923;28;20273;-43
2024/03/19 02:29:18;;;;;;;6.50;5.70;;;9.80;99.90;;;;;;5081276;28;20184;-41
2024/03/19 02:31:43;;;;;;;6.10;5.57;;;9.80;1.00;;;;;;5081300;28;20443;-42
2024/03/19 02:34:09;;;;;;;5.50;5.00;;;9.70;1.00;;;;;;5080891;28;20594;-41
2024/03/19 02:36:35;;;;;;;6.23;5.63;;;9.70;1.00;;;;;;5063258;28;20192;-42
2024/03/19 02:39:01;;;;;;;6.07;5.47;;;9.70;1.00;;;;;;5080963;28;20177;-44
2024/03/19 02:41:26;;;;;;;5.67;5.17;;;9.60;1.00;;;;;;5079996;28;20423;-41
2024/03/19 02:43:52;;;;;;;4.70;4.30;;;9.60;1.00;;;;;;5079902;28;20173;-42
2024/03/19 02:46:17;;;;;;;5.70;5.20;;;9.50;1.00;;;;;;5080110;28;20488;-43
2024/03/19 02:48:43;;;;;;;5.30;4.80;;;9.50;1.00;;;;;;5080060;28;20471;-42
2024/03/19 02:51:09;;;;;;;5.97;5.23;;;9.50;1.00;;;;;;5080290;28;20173;-44
2024/03/19 02:53:35;;;;;;;6.00;4.67;;;9.50;1.00;;;;;;5080173;28;20489;-42
2024/03/19 02:56:00;;;;;;;6.33;5.73;;;9.40;1.00;;;;;;5080834;28;20184;-41
2024/03/19 02:58:26;;;;;;;6.30;5.40;;;9.40;1.00;;;;;;5081394;28;20177;-42
2024/03/19 03:00:55;;;;;;;5.27;4.87;;;9.40;1.00;;;;;;5080872;28;20196;-44
2024/03/19 03:03:21;;;;;;;7.13;5.40;;;9.40;1.00;;;;;;5081205;28;20738;-47
2024/03/19 03:05:47;;;;;;;6.83;6.23;;;9.30;1.00;;;;;;5081091;28;20508;-43
2024/03/19 03:08:12;;;;;;;5.13;4.63;;;9.30;1.00;;;;;;5080803;28;20180;-42
2024/03/19 03:10:39;;;;;;;4.70;4.30;;;9.20;1.00;;;;;;5080685;28;20485;-42
2024/03/19 03:13:05;;;;;;;5.03;4.53;;;9.20;1.00;;;;;;5062171;28;20703;-42
2024/03/19 03:15:31;;;;;;;6.20;5.60;;;9.20;1.00;;;;;;5080631;28;20469;-42
2024/03/19 03:17:56;;;;;;;5.53;5.03;;;9.10;1.00;;;;;;5080975;28;20169;-44
2024/03/19 03:20:23;;;;;;;6.30;5.70;;;9.10;1.00;;;;;;5081003;28;20561;-43
2024/03/19 03:22:48;;;;;;;5.40;4.90;;;9.00;1.00;;;;;;5080489;28;20503;-43
2024/03/19 03:25:15;;;;;;;6.03;5.53;;;9.00;1.00;;;;;;5079941;28;20435;-43
2024/03/19 03:27:41;;;;;;;5.37;4.87;;;9.00;1.00;;;;;;5080346;28;20201;-42
2024/03/19 03:30:13;;;;;;;7.80;5.80;;;9.00;1.00;;;;;;5080786;28;20423;-42
2024/03/19 03:32:45;;;;;;;5.70;5.20;;;8.90;1.00;;;;;;5080379;28;20437;-43
2024/03/19 03:35:11;;;;;;;7.23;4.93;;;8.90;1.00;;;;;;5080100;28;20412;-41
2024/03/19 03:37:37;;;;;;;8.30;5.67;;;8.90;1.00;;;;;;5062236;28;20821;-42
2024/03/19 03:40:19;;;;;;;5.13;4.70;;;8.80;1.00;;;;;;5079830;28;20431;-42
2024/03/19 03:42:46;;;;;;;5.83;5.23;;;8.80;1.00;;;;;;5080163;28;20740;-41
2024/03/19 03:45:12;;;;;;;5.87;5.37;;;8.70;1.00;;;;;;5079893;28;20423;-41
2024/03/19 03:47:41;;;;;;;5.60;4.97;;;8.70;1.00;;;;;;5079944;28;20899;-41
2024/03/19 03:50:08;;;;;;;6.33;5.83;;;8.70;1.00;;;;;;5079864;28;20480;-41
2024/03/19 03:52:34;;;;;;;7.33;5.63;;;8.60;1.00;;;;;;5058657;28;20472;-42
2024/03/19 03:55:02;;;;;;;6.20;5.30;;;8.60;1.00;;;;;;5057608;28;20439;-43
2024/03/19 03:57:27;;;;;;;6.17;5.30;;;8.60;1.00;;;;;;5057284;28;20424;-44
2024/03/19 03:59:53;;;;;;;5.20;4.70;;;8.60;1.00;;;;;;5058464;28;20845;-42
2024/03/19 04:02:19;;;;;;;4.40;4.00;;;8.50;1.00;;;;;;5059314;28;20169;-42
2024/03/19 04:04:45;;;;;;;4.73;4.23;;;8.50;1.00;;;;;;5059245;28;20182;-44
2024/03/19 04:07:11;;;;;;;5.00;4.50;;;8.50;1.00;;;;;;5041662;28;20587;-43
2024/03/19 04:09:37;;;;;;;4.40;3.97;;;8.50;1.00;;;;;;5059306;28;20531;-41
2024/03/19 04:12:03;;;;;;;4.90;4.10;;;8.50;1.00;;;;;;5058547;28;20849;-41
2024/03/19 04:14:29;;;;;;;4.27;3.90;;;8.40;1.00;;;;;;5058519;28;20189;-43
2024/03/19 04:16:54;;;;;;;5.20;4.80;;;8.40;1.00;;;;;;5058171;28;20498;-42
2024/03/19 04:19:20;;;;;;;4.73;4.30;;;8.40;1.00;;;;;;5059849;28;20189;-43
2024/03/19 04:21:46;;;;;;;4.50;4.10;;;8.40;1.00;;;;;;5059382;28;20272;-42
2024/03/19 04:24:12;;;;;;;5.47;3.97;;;8.40;1.00;;;;;;5059525;28;20240;-44
2024/03/19 04:26:38;;;;;;;4.03;3.63;;;8.30;1.00;;;;;;5058998;28;20209;-41
2024/03/19 04:29:04;;;;;;;6.03;4.90;;;8.30;1.00;;;;;;5059369;28;20838;-43
2024/03/19 04:31:43;;;;;;;4.53;4.13;;;8.30;1.00;;;;;;5057526;28;20460;-41
2024/03/19 04:34:10;;;;;;;4.50;4.10;;;8.30;1.00;;;;;;5059366;28;20706;-44
2024/03/19 04:36:35;;;;;;;4.50;4.10;;;8.30;1.00;;;;;;5056614;28;20440;-42
2024/03/19 04:39:10;;;;;;;4.60;4.20;;;8.20;1.00;;;;;;5057939;28;20416;-40
2024/03/19 04:41:38;;;;;;;4.73;4.33;;;8.20;1.00;;;;;;5058534;28;20177;-40
2024/03/19 04:44:04;;;;;;;4.10;3.70;;;8.20;1.00;;;;;;5058734;28;20436;-43
2024/03/19 04:46:30;;;;;;;4.30;3.40;;;8.20;1.00;;;;;;5058126;28;20473;-42
2024/03/19 04:48:56;;;;;;;4.90;4.40;;;8.20;1.00;;;;;;5058656;28;20846;-42
2024/03/19 04:51:21;;;;;;;4.13;3.60;;;8.20;1.00;;;;;;5058226;28;20268;-43
2024/03/19 04:53:47;;;;;;;6.47;4.20;;;8.20;1.00;;;;;;5073109;28;20315;-42
2024/03/19 04:56:13;;;;;;;4.53;4.13;;;8.10;1.00;;;;;;5043436;28;20525;-43
2024/03/19 04:58:38;;;;;;;3.63;3.33;;;8.10;1.00;;;;;;5078582;28;20533;-45
2024/03/19 05:01:04;;;;;;;5.57;4.20;;;8.10;1.00;;;;;;5058142;28;20567;-44
2024/03/19 05:03:29;;;;;;;4.70;4.30;;;8.10;1.00;;;;;;5078294;28;20424;-41
2024/03/19 05:05:55;;;;;;;4.73;4.20;;;8.00;1.00;;;;;;5078449;28;20579;-41
2024/03/19 05:08:21;;;;;;;4.87;3.87;;;8.00;1.00;;;;;;5079029;28;20477;-41
2024/03/19 05:10:49;;;;;;;4.27;3.90;;;8.00;1.00;;;;;;5078397;28;20616;-41
2024/03/19 05:13:14;;;;;;;5.03;3.90;;;8.00;1.00;;;;;;5060170;28;20402;-42
2024/03/19 05:15:40;;;;;;;4.50;4.10;;;7.90;1.00;;;;;;5078163;28;20845;-42
2024/03/19 05:18:07;;;;;;;4.73;4.33;;;7.90;1.00;;;;;;5058358;28;20177;-41
2024/03/19 05:20:34;;;;;;;4.37;3.87;;;7.90;1.00;;;;;;5077654;28;20415;-41
2024/03/19 05:23:00;;;;;;;3.77;3.37;;;7.90;1.00;;;;;;5076797;28;20513;-40
2024/03/19 05:25:26;;;;;;;3.50;3.20;;;7.80;1.00;;;;;;5055582;28;20539;-41
2024/03/19 05:27:52;;;;;;;4.20;3.90;;;7.80;1.00;;;;;;5072203;28;20272;-40
2024/03/19 05:30:19;;;;;;;4.00;3.40;;;7.80;1.00;;;;;;5077823;28;20447;-44
2024/03/19 05:32:44;;;;;;;2.83;2.63;;;7.80;1.00;;;;;;5078994;28;20196;-40
2024/03/19 05:35:10;;;;;;;3.80;3.50;;;7.80;1.00;;;;;;5077814;28;20830;-41
2024/03/19 05:37:36;;;;;;;3.90;3.27;;;7.80;1.00;;;;;;5075377;28;20326;-41
2024/03/19 05:40:06;;;;;;;3.70;3.40;;;7.80;1.00;;;;;;5075497;28;20284;-40
2024/03/19 05:42:32;;;;;;;3.37;3.07;;;7.80;1.00;;;;;;5075580;28;20485;-41
2024/03/19 05:44:58;;;;;;;3.60;3.30;;;7.80;1.00;;;;;;5076785;28;20502;-41
2024/03/19 05:47:24;;;;;;;3.10;2.50;;;7.80;1.00;;;;;;5055007;28;20551;-40
2024/03/19 05:49:50;;;;;;;4.13;2.87;;;7.80;1.00;;;;;;5071968;28;20559;-42
2024/03/19 05:52:16;;;;;;;4.03;3.63;;;7.90;1.00;;;;;;5057107;28;20551;-40
2024/03/19 05:54:42;;;;;;;3.80;3.10;;;7.90;1.00;;;;;;5054055;28;20441;-41
2024/03/19 05:57:08;;;;;;;4.00;3.60;;;7.90;1.00;;;;;;5074155;28;20165;-41
2024/03/19 05:59:33;;;;;;;4.23;3.70;;;8.00;1.00;;;;;;5073467;28;20180;-41
2024/03/19 06:02:00;;;;;;;4.07;3.77;;;8.00;1.00;;;;;;5075089;28;20228;-42
2024/03/19 06:04:28;;;;;;;4.20;3.80;;;8.10;1.00;;;;;;5074846;28;20192;-42
2024/03/19 06:06:54;;;;;;;4.50;4.03;;;8.20;1.00;;;;;;5073065;28;21044;-41
2024/03/19 06:09:19;;;;;;;5.10;4.07;;;8.20;1.00;;;;;;5073507;28;20439;-41
2024/03/19 06:11:47;;;;;;;4.10;3.70;;;8.30;1.00;;;;;;5073043;28;20411;-42
2024/03/19 06:14:14;;;;;;;4.07;3.73;;;8.40;1.00;;;;;;5055184;28;20304;-41
2024/03/19 06:16:40;;;;;;;4.10;3.70;;;8.50;1.00;;;;;;5073779;28;20454;-41
2024/03/19 06:19:06;;;;;;;4.40;3.87;;;8.60;1.00;;;;;;5073793;28;20419;-43
2024/03/19 06:21:32;;;;;;;4.90;4.40;;;8.70;1.00;;;;;;5054129;28;20459;-43
2024/03/19 06:23:59;;;;;;;4.63;4.13;;;8.80;1.00;;;;;;5071596;28;20485;-42
2024/03/19 06:26:25;;;;;;;5.20;4.70;;;8.90;1.00;;;;;;5075762;28;20283;-43
2024/03/19 06:28:50;;;;;;;6.37;5.20;;;9.00;1.00;;;;;;5073860;28;20435;-43
2024/03/19 06:31:16;;;;;;;6.47;5.50;;;9.00;1.00;;;;;;5055391;28;20264;-42
2024/03/19 06:33:42;;;;;;;7.43;5.60;;;9.20;1.00;;;;;;5074611;28;20170;-42
2024/03/19 06:36:07;;;;;;;7.73;5.97;;;9.30;1.00;;;;;;5074294;28;20451;-42
2024/03/19 06:38:33;;;;;;;6.00;5.40;;;9.40;1.00;;;;;;5073564;28;20181;-41
2024/03/19 06:40:59;;;;;;;5.53;5.03;;;9.60;1.00;;;;;;5103331;28;20462;-40
2024/03/19 06:43:25;;;;;;;5.50;5.00;;;9.80;1.00;;;;;;5094219;28;20177;-42
2024/03/19 06:45:52;;;;;;;5.70;5.10;;;10.00;1.00;;;;;;5093474;28;20465;-41
2024/03/19 06:48:18;;;;;;;7.47;5.17;;;10.10;1.00;;;;;;5113163;28;20421;-43
2024/03/19 06:50:45;;;;;;;5.80;5.20;;;10.30;1.00;;;;;;5112217;28;20416;-41
2024/03/19 06:53:11;;;;;;;5.67;5.17;;;10.40;1.00;;;;;;5113139;28;20596;-42
2024/03/19 06:55:36;;;;;;;2.57;2.20;;;10.50;99.90;;;;;;5115785;28;20557;-45
2024/03/19 06:58:02;;;;;;;5.53;0.90;;;10.80;99.90;;;;;;5115297;28;20173;-47
2024/03/19 07:00:28;;;;;;;2.50;1.00;;;11.70;1.00;;;;;;5116665;28;20217;-45
2024/03/19 07:02:56;;;;;;;6.10;2.13;;;12.80;1.00;;;;;;5118221;28;20409;-45
2024/03/19 07:05:22;;;;;;;12.57;3.33;;;13.90;1.00;;;;;;5118987;28;20172;-43
2024/03/19 07:07:50;;;;;;;6.90;3.33;;;14.80;99.90;;;;;;5115901;28;20459;-44
2024/03/19 07:10:16;;;;;;;9.97;4.83;;;15.40;99.90;;;;;;5117893;28;20262;-47
2024/03/19 07:12:43;;;;;;;8.93;3.70;;;16.10;1.00;;;;;;5117087;28;20413;-45
2024/03/19 07:15:14;;;;;;;6.30;3.10;;;16.60;99.90;;;;;;5099696;28;20425;-44
2024/03/19 07:17:41;;;;;;;7.50;4.13;;;17.20;99.90;;;;;;5117438;28;20410;-45
2024/03/19 07:20:12;;;;;;;5.30;3.67;;;17.70;1.00;;;;;;5116768;28;20421;-45
2024/03/19 07:22:38;;;;;;;4.77;3.30;;;18.10;1.00;;;;;;5116975;28;20421;-46
2024/03/19 07:25:07;;;;;;;4.53;3.30;;;18.50;1.00;;;;;;5080110;28;20438;-45
2024/03/19 07:27:37;;;;;;;6.80;3.37;;;18.80;99.90;;;;;;5117544;28;20493;-44
2024/03/19 07:30:12;;;;;;;6.40;3.10;;;19.20;1.00;;;;;;5118560;28;20417;-43
2024/03/19 07:32:39;;;;;;;4.40;3.07;;;19.40;1.00;;;;;;5119116;28;20458;-44
2024/03/19 07:35:05;;;;;;;4.90;3.20;;;19.50;99.90;;;;;;5117660;28;20524;-45
2024/03/19 07:37:31;;;;;;;4.50;2.90;;;19.50;99.90;;;;;;5118076;28;20819;-45
2024/03/19 07:39:57;;;;;;;4.57;2.53;;;19.70;99.90;;;;;;5117452;28;20421;-44
2024/03/19 07:42:23;;;;;;;3.40;2.23;;;19.80;99.90;;;;;;5117982;28;20975;-44
2024/03/19 07:44:51;;;;;;;7.27;2.47;;;20.00;99.90;;;;;;5118769;28;20508;-44
2024/03/19 07:47:16;;;;;;;4.53;2.33;;;20.10;99.90;;;;;;5119008;28;20298;-42
2024/03/19 07:49:42;;;;;;;4.90;2.40;;;20.20;99.90;;;;;;5118104;28;20970;-46
2024/03/19 07:52:08;;;;;;;2.40;1.93;;;20.30;64.80;;;;;;5118871;28;20172;-44
2024/03/19 07:54:34;;;;;;;3.10;2.80;;;20.60;39.60;;;;;;5117258;28;20194;-43
2024/03/19 07:56:59;;;;;;;2.80;2.10;;;20.80;25.70;;;;;;5114059;28;20703;-45
2024/03/19 07:59:26;;;;;;;4.50;2.70;;;21.00;10.30;;;;;;5115254;28;20252;-44
2024/03/19 08:01:52;;;;;;;2.10;1.80;;;21.20;1.00;;;;;;5114914;28;20433;-44
2024/03/19 08:04:21;;;;;;;3.60;2.03;;;21.40;1.00;;;;;;5097650;28;20457;-43
2024/03/19 08:06:46;;;;;;;2.90;2.13;;;21.50;1.00;;;;;;5117041;28;20544;-48
2024/03/19 08:09:12;;;;;;;2.77;1.60;;;21.60;1.00;;;;;;5117101;28;20456;-45
2024/03/19 08:11:38;;;;;;;2.30;1.70;;;21.90;1.00;;;;;;5116870;28;20240;-45
2024/03/19 08:14:03;;;;;;;2.33;1.97;;;22.30;1.00;;;;;;5097266;28;20215;-44
2024/03/19 08:16:29;;;;;;;2.17;1.80;;;22.50;1.00;;;;;;5118073;28;20528;-46
2024/03/19 08:18:59;;;;;;;2.27;2.00;;;22.70;1.00;;;;;;5118698;28;20184;-43
2024/03/19 08:21:25;;;;;;;2.73;2.00;;;22.80;1.00;;;;;;5117945;28;20180;-47
2024/03/19 08:23:51;;;;;;;2.77;2.13;;;22.90;1.00;;;;;;5116853;28;20601;-42
2024/03/19 08:26:17;;;;;;;2.93;2.30;;;22.90;1.00;;;;;;5115832;28;20814;-42
2024/03/19 08:28:46;;;;;;;2.57;2.37;;;22.80;1.00;;;;;;5096584;28;20871;-42
2024/03/19 08:31:12;;;;;;;2.80;2.60;;;22.60;1.00;;;;;;5116637;28;20482;-44
2024/03/19 08:33:38;;;;;;;3.53;2.77;;;22.30;1.00;;;;;;5116136;28;20684;-41
2024/03/19 08:36:04;;;;;;;2.83;2.63;;;22.00;1.00;;;;;;5116755;28;20429;-41
2024/03/19 08:38:31;;;;;;;3.17;2.40;;;21.70;1.00;;;;;;5117261;28;20850;-43
2024/03/19 08:40:59;;;;;;;3.10;2.80;;;21.70;1.00;;;;;;5117760;28;20524;-43
2024/03/19 08:43:25;;;;;;;5.10;2.40;;;21.70;1.00;;;;;;5117857;28;20817;-41
2024/03/19 08:45:50;;;;;;;2.47;2.27;;;21.90;1.00;;;;;;5096553;28;20427;-41
2024/03/19 08:48:16;;;;;;;2.20;2.00;;;22.30;1.00;;;;;;5118409;28;20172;-44
2024/03/19 08:50:41;;;;;;;2.70;2.50;;;22.60;1.00;;;;;;5117883;28;20172;-42
2024/03/19 08:53:07;;;;;;;3.10;2.47;;;22.90;1.00;;;;;;5117325;28;20242;-41
2024/03/19 08:55:36;;;;;;;2.90;2.67;;;23.10;1.00;;;;;;5116501;28;20204;-42
2024/03/19 08:58:04;;;;;;;2.90;2.70;;;23.10;1.00;;;;;;5117808;28;20186;-41
2024/03/19 09:00:30;;;;;;;3.20;2.90;;;23.10;1.00;;;;;;5118092;28;20874;-41
2024/03/19 09:02:57;;;;;;;3.23;2.93;;;23.10;1.00;;;;;;5117724;28;20409;-44
2024/03/19 09:05:22;;;;;;;3.30;3.00;;;23.00;1.00;;;;;;5116872;28;20433;-47
2024/03/19 09:07:48;;;;;;;5.93;3.93;;;22.80;1.00;;;;;;5076524;28;20736;-41
2024/03/19 09:10:15;;;;;;;3.70;3.40;;;22.80;1.00;;;;;;5097139;28;20208;-41
2024/03/19 09:12:41;;;;;;;3.13;2.90;;;22.80;1.00;;;;;;5116736;28;20440;-41
2024/03/19 09:15:11;;;;;;;3.70;3.40;;;22.80;1.00;;;;;;5116805;28;20533;-42
2024/03/19 09:17:37;;;;;;;4.23;3.20;;;22.70;1.00;;;;;;5117962;28;20172;-41
2024/03/19 09:20:05;;;;;;;3.33;3.03;;;22.60;1.00;;;;;;5117324;28;20433;-41
2024/03/19 09:22:31;;;;;;;3.60;3.30;;;22.70;1.00;;;;;;5117361;28;20505;-42
2024/03/19 09:24:57;;;;;;;4.50;2.27;;;22.70;1.00;;;;;;5117832;28;20501;-43
2024/03/19 09:27:22;;;;;;;3.10;2.10;;;22.80;1.00;;;;;;5117225;28;20744;-41
2024/03/19 09:29:48;;;;;;;2.33;2.13;;;22.90;1.00;;;;;;5118248;28;20187;-42
2024/03/19 09:32:14;;;;;;;2.77;2.37;;;23.20;1.00;;;;;;5117160;28;20176;-41
2024/03/19 09:34:39;;;;;;;2.10;1.90;;;23.50;1.00;;;;;;5095625;28;20203;-41
2024/03/19 09:37:05;;;;;;;2.40;2.20;;;23.80;1.00;;;;;;5115382;28;20183;-41
2024/03/19 09:39:30;;;;;;;2.13;1.93;;;23.90;1.00;;;;;;5116880;28;20270;-42
2024/03/19 09:42:16;;;;;;;2.17;1.97;;;24.00;1.00;;;;;;5115883;28;20187;-41
2024/03/19 09:44:42;;;;;;;4.07;1.97;;;24.00;1.00;;;;;;5094843;28;20180;-43
2024/03/19 09:47:09;;;;;;;2.27;1.87;;;24.00;1.00;;;;;;5114478;28;20851;-44
2024/03/19 09:49:35;;;;;;;2.00;1.80;;;24.00;1.00;;;;;;5117307;28;20515;-42
2024/03/19 09:52:06;;;;;;;2.93;2.00;;;24.10;1.00;;;;;;5095261;28;20835;-40
2024/03/19 09:54:33;;;;;;;4.53;2.30;;;24.20;1.00;;;;;;5116782;28;20478;-41
2024/03/19 09:57:00;;;;;;;3.83;2.70;;;24.30;1.00;;;;;;5116226;28;20410;-44
2024/03/19 09:59:27;;;;;;;2.67;2.43;;;24.50;1.00;;;;;;5116899;28;20446;-45
2024/03/19 10:01:56;;;;;;;6.30;2.20;;;25.00;1.00;;;;;;5095771;28;20479;-39
2024/03/19 10:04:23;;;;;;;2.53;2.17;;;25.60;1.00;;;;;;5095980;28;20419;-43
2024/03/19 10:06:49;;;;;;;2.00;1.80;;;26.10;1.00;;;;;;5113031;28;20500;-42
2024/03/19 10:09:19;;;;;;;3.80;2.47;;;26.90;1.00;;;;;;5097683;28;20441;-43
2024/03/19 10:11:45;;;;;;;2.70;1.60;;;27.40;1.00;;;;;;5116972;28;20394;-42
2024/03/19 10:14:12;;;;;;;2.73;2.50;;;28.10;1.00;;;;;;5096838;28;20408;-42
2024/03/19 10:16:41;;;;;;;4.87;1.93;;;28.60;1.00;;;;;;5114824;28;20521;-44
2024/03/19 10:19:10;;;;;;;4.43;1.80;;;28.80;1.00;;;;;;5115879;28;20683;-42
2024/03/19 10:21:36;;;;;;;3.30;1.70;;;29.10;1.00;;;;;;5115392;28;20493;-45
2024/03/19 10:24:28;;;;;;;7.30;1.60;;;29.30;1.00;;;;;;5116075;28;20487;-43
2024/03/19 10:26:55;;;;;;;6.43;2.37;;;29.80;1.00;;;;;;5090302;28;20228;-42
2024/03/19 10:29:20;;;;;;;4.90;2.00;;;30.20;1.00;;;;;;5093654;28;20548;-44
2024/03/19 10:31:46;;;;;;;4.37;1.70;;;30.70;1.00;;;;;;5102526;28;20422;-46
2024/03/19 10:34:25;;;;;;;5.63;1.70;;;31.00;1.00;;;;;;5115966;28;20211;-47
2024/03/19 10:36:53;;;;;;;3.90;1.80;;;31.30;1.00;;;;;;5117513;28;20422;-44
2024/03/19 10:39:22;;;;;;;2.80;1.43;;;31.50;1.00;;;;;;5119160;28;20413;-46
2024/03/19 10:41:51;;;;;;;2.67;1.40;;;31.80;1.00;;;;;;5097791;28;20424;-46
2024/03/19 10:44:21;;;;;;;3.00;1.33;;;31.90;1.00;;;;;;5117934;28;20817;-46
2024/03/19 10:46:49;;;;;;;3.97;1.30;;;32.10;1.00;;;;;;5097483;28;20475;-46
2024/03/19 10:49:16;;;;;;;4.70;1.57;;;32.30;1.00;;;;;;5103755;28;20461;-45
2024/03/19 10:52:02;;;;;;;4.13;1.20;;;32.50;1.00;;;;;;5119904;28;20396;-42
2024/03/19 10:54:31;;;;;;;7.97;1.40;;;32.80;1.00;;;;;;5106346;28;20784;-44
2024/03/19 10:56:58;;;;;;;2.30;1.37;;;33.00;1.00;;;;;;5120446;28;20401;-43
2024/03/19 10:59:23;;;;;;;4.00;1.20;;;33.40;1.00;;;;;;5102806;28;20815;-44
2024/03/19 11:01:52;;;;;;;3.70;1.43;;;33.60;1.00;;;;;;5119858;28;20432;-45
2024/03/19 11:04:26;;;;;;;4.90;1.20;;;33.80;1.00;;;;;;5120573;28;20206;-44
2024/03/19 11:06:56;;;;;;;3.30;1.10;;;34.00;1.00;;;;;;5119370;28;20503;-45
2024/03/19 11:09:24;;;;;;;4.20;1.67;;;34.10;1.00;;;;;;5118903;28;20443;-42
2024/03/19 11:11:54;;;;;;;8.03;1.10;;;34.30;1.00;;;;;;5120319;28;20648;-45
2024/03/19 11:14:21;;;;;;;4.77;1.33;;;34.40;1.00;;;;;;5120099;28;20412;-44
2024/03/19 11:16:47;;;;;;;4.60;1.50;;;34.60;1.00;;;;;;5118281;28;20567;-44
2024/03/19 11:19:28;;;;;;;3.40;1.40;;;34.70;1.00;;;;;;5118676;28;20720;-44
2024/03/19 11:21:57;;;;;;;3.90;1.33;;;34.40;1.00;;;;;;5118859;28;20176;-42
2024/03/19 11:24:36;;;;;;;2.23;1.43;;;34.30;1.00;;;;;;5118951;28;20426;-44
2024/03/19 11:27:03;;;;;;;5.27;2.13;;;34.10;1.00;;;;;;5119475;28;20823;-44
2024/03/19 11:29:37;;;;;;;3.27;1.60;;;34.20;1.00;;;;;;5119718;28;20507;-43
2024/03/19 11:32:04;;;;;;;4.87;1.30;;;34.30;1.00;;;;;;5119571;28;20417;-42
2024/03/19 11:34:29;;;;;;;2.27;1.50;;;34.30;1.00;;;;;;5119683;28;20429;-44
2024/03/19 11:36:55;;;;;;;4.13;1.70;;;34.40;1.00;;;;;;5117602;28;20854;-45
2024/03/19 11:39:22;;;;;;;3.90;1.43;;;34.60;1.00;;;;;;5118398;28;20248;-45
2024/03/19 11:41:48;;;;;;;3.63;1.80;;;34.70;1.00;;;;;;5117689;28;20414;-45
2024/03/19 11:44:19;;;;;;;2.27;1.43;;;34.40;1.00;;;;;;5118646;28;20524;-45
2024/03/19 11:46:52;;;;;;;2.63;1.37;;;34.00;1.00;;;;;;5118279;28;20555;-46
2024/03/19 11:49:24;;;;;;;4.23;1.30;;;33.70;1.00;;;;;;5116469;28;20443;-45
2024/03/19 11:52:09;;;;;;;5.33;2.00;;;33.70;1.00;;;;;;5082651;28;20677;-44
2024/03/19 11:54:40;;;;;;;10.30;2.13;;;33.70;1.00;;;;;;5097279;28;20444;-45
2024/03/19 11:57:05;;;;;;;4.30;1.80;;;34.10;1.00;;;;;;5119595;28;20492;-45
2024/03/19 11:59:31;;;;;;;4.50;2.37;;;34.50;1.00;;;;;;5116565;28;20492;-43
2024/03/19 12:01:57;;;;;;;3.13;1.40;;;34.80;1.00;;;;;;5117130;28;20245;-44
2024/03/19 12:04:26;;;;;;;3.93;2.00;;;34.80;1.00;;;;;;5116578;28;20208;-45
2024/03/19 12:06:53;;;;;;;3.20;1.77;;;34.90;1.00;;;;;;5118024;28;20461;-44
2024/03/19 12:09:21;;;;;;;5.20;1.70;;;34.80;1.00;;;;;;5116841;28;20727;-46
2024/03/19 12:11:48;;;;;;;4.43;2.10;;;34.60;1.00;;;;;;5082829;28;20553;-43
2024/03/19 12:14:15;;;;;;;3.10;1.63;;;34.00;1.00;;;;;;5114413;28;20788;-44
2024/03/19 12:16:45;;;;;;;3.10;1.63;;;33.50;1.00;;;;;;5115055;28;20479;-45
2024/03/19 12:19:11;;;;;;;2.80;2.03;;;33.40;1.00;;;;;;5115556;28;20551;-46
2024/03/19 12:21:41;;;;;;;3.57;1.70;;;33.00;1.00;;;;;;5116568;28;20441;-45
2024/03/19 12:24:10;;;;;;;2.10;1.53;;;32.50;1.00;;;;;;5114434;28;20437;-45
2024/03/19 12:26:36;;;;;;;2.03;1.80;;;32.10;1.00;;;;;;5114328;28;20460;-44
2024/03/19 12:29:02;;;;;;;2.13;1.80;;;31.40;1.00;;;;;;5114812;28;20443;-43
2024/03/19 12:31:36;;;;;;;2.90;2.50;;;31.10;1.00;;;;;;5114585;28;20441;-45
2024/03/19 12:34:22;;;;;;;2.60;2.07;;;30.50;1.00;;;;;;5115299;28;20421;-44
2024/03/19 12:36:48;;;;;;;3.70;2.40;;;30.10;1.00;;;;;;5116231;28;20440;-46
2024/03/19 12:39:14;;;;;;;2.87;2.10;;;29.50;1.00;;;;;;5117217;28;20441;-46
2024/03/19 12:41:40;;;;;;;2.20;1.90;;;29.10;1.00;;;;;;5114083;28;20388;-48
2024/03/19 12:44:05;;;;;;;2.27;2.07;;;28.80;1.00;;;;;;5096887;28;20172;-45
2024/03/19 12:46:31;;;;;;;2.47;2.10;;;28.40;1.00;;;;;;5114603;28;20359;-47
2024/03/19 12:48:57;;;;;;;2.10;1.60;;;28.30;1.00;;;;;;5115309;28;20175;-45
2024/03/19 12:51:22;;;;;;;2.37;1.80;;;28.00;1.00;;;;;;5114725;28;20191;-47
2024/03/19 12:53:48;;;;;;;2.73;1.93;;;27.80;1.00;;;;;;5114396;28;20216;-45
2024/03/19 12:56:14;;;;;;;2.20;1.80;;;27.60;1.00;;;;;;5112536;28;20640;-44